createdAt,value
2019-01-30T00:01:21.983Z,12.50
2019-01-30T00:03:49.866Z,13.00
2019-01-30T00:06:17.527Z,12.67
2019-01-30T00:08:45.630Z,14.33
2019-01-30T00:11:13.102Z,14.77
2019-01-30T00:13:40.637Z,14.20
2019-01-30T00:16:08.258Z,14.13
2019-01-30T00:18:36.415Z,15.30
2019-01-30T00:21:04.034Z,14.57
2019-01-30T00:23:34.879Z,14.30
2019-01-30T00:26:02.783Z,14.03
2019-01-30T00:28:30.327Z,13.70
2019-01-30T00:30:58.149Z,13.63
2019-01-30T00:33:25.798Z,14.03
2019-01-30T00:35:59.301Z,14.47
2019-01-30T00:38:27.399Z,14.10
2019-01-30T00:41:01.263Z,14.33
2019-01-30T00:43:29.196Z,14.27
2019-01-30T00:45:57.272Z,14.37
2019-01-30T00:48:24.763Z,14.37
2019-01-30T00:50:53.686Z,14.70
2019-01-30T00:53:21.499Z,13.53
2019-01-30T00:55:49.193Z,13.67
2019-01-30T00:58:17.102Z,14.60
2019-01-30T01:00:44.927Z,13.83
2019-01-30T01:03:13.407Z,13.97
2019-01-30T01:05:41.422Z,14.90
2019-01-30T01:08:09.219Z,14.60
2019-01-30T01:10:37.420Z,13.70
2019-01-30T01:13:05.288Z,15.60
2019-01-30T01:15:34.465Z,13.87
2019-01-30T01:18:02.775Z,14.87
2019-01-30T01:20:30.475Z,14.10
2019-01-30T01:22:58.197Z,14.27
2019-01-30T01:25:25.843Z,14.77
2019-01-30T01:27:53.331Z,14.47
2019-01-30T01:30:25.721Z,14.57
2019-01-30T01:32:55.664Z,14.97
2019-01-30T01:35:23.981Z,14.30
2019-01-30T01:37:51.868Z,15.00
2019-01-30T01:40:21.427Z,14.87
2019-01-30T01:42:49.209Z,15.13
2019-01-30T01:45:18.957Z,12.13
2019-01-30T01:47:47.060Z,13.47
2019-01-30T01:50:16.959Z,14.30
2019-01-30T01:52:45.019Z,14.80
2019-01-30T01:55:12.777Z,13.23
2019-01-30T01:57:40.505Z,14.97
2019-01-30T02:00:11.239Z,14.17
2019-01-30T02:02:38.705Z,14.57
2019-01-30T02:05:08.669Z,13.60
2019-01-30T02:07:36.760Z,14.47
2019-01-30T02:10:06.016Z,13.20
2019-01-30T02:12:33.840Z,13.00
2019-01-30T02:15:01.715Z,14.77
2019-01-30T02:17:29.511Z,13.40
2019-01-30T02:19:58.733Z,14.77
2019-01-30T02:22:56.952Z,13.13
2019-01-30T02:25:24.898Z,13.53
2019-01-30T02:27:52.639Z,13.13
2019-01-30T02:30:22.304Z,14.60
2019-01-30T02:32:52.620Z,14.07
2019-01-30T02:35:20.139Z,14.63
2019-01-30T02:37:47.996Z,14.10
2019-01-30T02:40:16.961Z,14.80
2019-01-30T02:42:44.832Z,15.63
2019-01-30T02:45:14.439Z,13.93
2019-01-30T02:47:41.913Z,14.27
2019-01-30T02:50:11.891Z,15.57
2019-01-30T02:52:43.379Z,14.47
2019-01-30T02:55:12.475Z,14.37
2019-01-30T02:57:39.948Z,15.27
2019-01-30T03:00:19.134Z,15.07
2019-01-30T03:02:49.460Z,15.17
2019-01-30T03:05:17.263Z,13.77
2019-01-30T03:07:44.775Z,14.97
2019-01-30T03:10:16.597Z,15.07
2019-01-30T03:12:44.114Z,13.40
2019-01-30T03:15:12.038Z,14.63
2019-01-30T03:17:40.095Z,15.97
2019-01-30T03:22:48.327Z,15.80
2019-01-30T03:25:16.726Z,14.23
2019-01-30T03:27:44.275Z,14.60
2019-01-30T03:30:23.414Z,14.97
2019-01-30T03:32:50.925Z,14.30
2019-01-30T03:35:18.950Z,14.80
2019-01-30T03:37:46.746Z,14.17
2019-01-30T03:40:15.892Z,14.73
2019-01-30T03:42:43.382Z,14.60
2019-01-30T03:45:11.750Z,14.30
2019-01-30T03:47:39.284Z,13.87
2019-01-30T03:50:07.962Z,14.17
2019-01-30T03:52:35.734Z,14.30
2019-01-30T03:55:04.288Z,14.63
2019-01-30T03:57:36.060Z,13.73
2019-01-30T04:00:05.388Z,14.43
2019-01-30T04:02:32.957Z,13.77
2019-01-30T04:05:00.737Z,13.93
2019-01-30T04:07:28.368Z,14.57
2019-01-30T04:09:56.440Z,13.20
2019-01-30T04:12:23.902Z,12.67
2019-01-30T04:14:51.750Z,14.43
2019-01-30T04:17:19.462Z,13.93
2019-01-30T04:19:47.028Z,14.17
2019-01-30T04:22:14.752Z,12.83
2019-01-30T04:24:42.514Z,13.87
2019-01-30T04:27:16.984Z,13.53
2019-01-30T04:29:44.567Z,13.17
2019-01-30T04:32:14.810Z,12.70
2019-01-30T04:34:42.323Z,13.70
2019-01-30T04:37:10.131Z,14.73
2019-01-30T04:39:37.643Z,13.33
2019-01-30T04:42:05.146Z,13.80
2019-01-30T04:44:32.563Z,13.20
2019-01-30T04:47:00.047Z,14.50
2019-01-30T04:49:27.579Z,14.00
2019-01-30T04:51:55.412Z,12.70
2019-01-30T04:54:22.874Z,13.97
2019-01-30T04:56:50.376Z,14.03
2019-01-30T04:59:18.900Z,13.13
2019-01-30T05:01:49.838Z,14.03
2019-01-30T05:04:16.039Z,13.20
2019-01-30T05:06:43.545Z,14.17
2019-01-30T05:09:11.322Z,11.87
2019-01-30T05:11:40.088Z,13.53
2019-01-30T05:14:07.945Z,14.47
2019-01-30T05:16:54.818Z,13.90
2019-01-30T05:19:22.531Z,13.23
2019-01-30T05:21:51.344Z,14.90
2019-01-30T05:24:18.816Z,14.50
2019-01-30T05:26:46.535Z,14.40
2019-01-30T05:29:14.275Z,14.83
2019-01-30T05:31:42.089Z,14.47
2019-01-30T05:34:09.538Z,14.43
2019-01-30T05:36:36.972Z,13.33
2019-01-30T05:39:08.008Z,14.80
2019-01-30T05:41:36.035Z,14.40
2019-01-30T05:44:03.689Z,15.83
2019-01-30T05:46:31.818Z,15.23
2019-01-30T05:48:59.283Z,15.10
2019-01-30T05:51:26.725Z,15.30
2019-01-30T05:53:54.188Z,15.70
2019-01-30T05:56:22.497Z,15.17
2019-01-30T05:58:51.959Z,16.83
2019-01-30T06:01:19.426Z,14.90
2019-01-30T06:03:47.713Z,15.80
2019-01-30T06:06:15.770Z,15.23
2019-01-30T06:08:43.496Z,14.43
2019-01-30T06:11:12.183Z,16.20
2019-01-30T06:13:39.717Z,15.60
2019-01-30T06:16:07.169Z,15.43
2019-01-30T06:18:35.236Z,14.83
2019-01-30T06:21:03.091Z,15.67
2019-01-30T06:23:30.845Z,16.23
2019-01-30T06:25:58.375Z,16.17
2019-01-30T06:28:29.203Z,16.27
2019-01-30T06:30:55.452Z,14.50
2019-01-30T06:33:22.984Z,15.00
2019-01-30T06:35:52.529Z,14.33
2019-01-30T06:38:20.359Z,14.67
2019-01-30T06:40:49.316Z,15.00
2019-01-30T06:43:17.063Z,15.23
2019-01-30T06:45:45.190Z,13.97
2019-01-30T06:48:12.792Z,14.37
2019-01-30T06:50:40.490Z,15.53
2019-01-30T06:53:08.003Z,15.03
2019-01-30T06:55:35.506Z,14.20
2019-01-30T06:58:03.182Z,14.27
2019-01-30T07:00:30.983Z,13.03
2019-01-30T07:02:58.850Z,14.17
2019-01-30T07:05:26.290Z,14.73
2019-01-30T07:07:53.794Z,14.57
2019-01-30T07:10:23.450Z,13.73
2019-01-30T07:12:51.410Z,13.80
2019-01-30T07:15:18.848Z,14.00
2019-01-30T07:17:46.374Z,13.77
2019-01-30T07:20:14.060Z,14.77
2019-01-30T07:22:41.792Z,14.53
2019-01-30T07:25:10.362Z,12.87
2019-01-30T07:27:37.816Z,14.50
2019-01-30T07:30:10.066Z,14.13
2019-01-30T07:32:42.313Z,14.30
2019-01-30T07:35:07.059Z,13.23
2019-01-30T07:37:34.495Z,13.97
2019-01-30T07:40:01.990Z,14.23
2019-01-30T07:42:29.469Z,13.87
2019-01-30T07:44:56.951Z,14.33
2019-01-30T07:47:24.428Z,13.73
2019-01-30T07:49:52.428Z,14.17
2019-01-30T07:52:20.311Z,14.23
2019-01-30T07:54:47.851Z,14.03
2019-01-30T07:57:15.416Z,14.40
2019-01-30T07:59:43.168Z,14.50
2019-01-30T08:02:10.603Z,14.30
2019-01-30T08:04:38.104Z,14.77
2019-01-30T08:07:05.527Z,14.70
2019-01-30T08:09:33.053Z,14.93
2019-01-30T08:12:00.459Z,14.33
2019-01-30T08:14:28.168Z,15.53
2019-01-30T08:16:55.934Z,15.67
2019-01-30T08:19:23.353Z,16.47
2019-01-30T08:21:51.084Z,16.03
2019-01-30T08:24:18.968Z,15.93
2019-01-30T08:26:46.770Z,15.20
2019-01-30T08:29:15.169Z,14.03
2019-01-30T08:31:42.914Z,15.23
2019-01-30T08:34:10.717Z,14.17
2019-01-30T08:36:38.175Z,14.87
2019-01-30T08:39:07.528Z,14.17
2019-01-30T08:41:35.250Z,15.27
2019-01-30T08:44:03.110Z,15.03
2019-01-30T08:46:31.264Z,15.17
2019-01-30T08:48:58.773Z,14.63
2019-01-30T08:51:26.242Z,14.93
2019-01-30T08:53:54.338Z,14.53
2019-01-30T08:56:22.489Z,14.83
2019-01-30T08:58:50.186Z,14.83
2019-01-30T09:01:17.611Z,14.93
2019-01-30T09:03:45.055Z,14.00
2019-01-30T09:06:12.455Z,15.30
2019-01-30T09:08:39.900Z,14.13
2019-01-30T09:11:07.681Z,15.47
2019-01-30T09:13:36.135Z,14.43
2019-01-30T09:16:04.232Z,15.23
2019-01-30T09:18:32.070Z,15.53
2019-01-30T09:20:59.409Z,15.63
2019-01-30T09:23:26.956Z,15.40
2019-01-30T09:25:54.354Z,15.27
2019-01-30T09:28:22.783Z,14.53
2019-01-30T09:30:50.506Z,14.57
2019-01-30T09:33:25.677Z,14.73
2019-01-30T09:35:47.142Z,14.10
2019-01-30T09:38:14.731Z,14.40
2019-01-30T09:40:42.489Z,14.20
2019-01-30T09:43:10.234Z,13.93
2019-01-30T09:45:37.680Z,14.73
2019-01-30T09:48:06.094Z,14.17
2019-01-30T09:50:34.301Z,15.10
2019-01-30T09:53:02.225Z,14.80
2019-01-30T09:55:29.896Z,14.80
2019-01-30T09:57:57.655Z,15.33
2019-01-30T10:00:30.049Z,14.87
2019-01-30T10:03:16.944Z,14.50
2019-01-30T10:05:45.390Z,13.20
2019-01-30T10:08:13.227Z,14.30
2019-01-30T10:10:40.945Z,14.43
2019-01-30T10:13:08.622Z,12.60
2019-01-30T10:15:38.010Z,14.70
2019-01-30T10:18:05.944Z,14.67
2019-01-30T10:20:33.951Z,14.13
2019-01-30T10:23:02.053Z,14.43
2019-01-30T10:25:29.868Z,14.33
2019-01-30T10:27:57.696Z,13.63
2019-01-30T10:30:30.924Z,12.03
2019-01-30T10:33:04.813Z,12.90
2019-01-30T10:35:32.964Z,13.00
2019-01-30T10:38:00.453Z,12.90
2019-01-30T10:40:27.885Z,13.93
2019-01-30T10:42:57.396Z,14.13
2019-01-30T10:45:25.861Z,13.33
2019-01-30T10:47:53.607Z,13.10
2019-01-30T10:50:23.465Z,10.67
2019-01-30T10:52:51.158Z,11.90
2019-01-30T10:55:20.561Z,13.03
2019-01-30T10:57:49.667Z,12.43
2019-01-30T11:00:22.691Z,12.87
2019-01-30T11:02:50.156Z,12.67
2019-01-30T11:05:18.079Z,12.30
2019-01-30T11:07:45.738Z,13.43
2019-01-30T11:10:16.202Z,11.43
2019-01-30T11:12:43.658Z,11.50
2019-01-30T11:15:13.554Z,12.97
2019-01-30T11:17:41.042Z,12.47
2019-01-30T11:20:09.531Z,11.57
2019-01-30T11:22:36.982Z,12.03
2019-01-30T11:25:07.929Z,11.17
2019-01-30T11:27:36.485Z,11.20
2019-01-30T11:30:05.390Z,10.70
2019-01-30T11:32:33.130Z,11.87
2019-01-30T11:35:00.954Z,11.47
2019-01-30T11:37:28.428Z,10.53
2019-01-30T11:39:56.502Z,10.07
2019-01-30T11:42:23.898Z,11.13
2019-01-30T11:44:51.958Z,10.43
2019-01-30T11:47:19.689Z,9.00
2019-01-30T11:49:47.105Z,9.93
2019-01-30T11:52:14.622Z,10.10
2019-01-30T11:54:42.151Z,10.40
2019-01-30T11:57:09.603Z,9.17
2019-01-30T11:59:37.395Z,10.20
2019-01-30T12:02:05.100Z,10.37
2019-01-30T12:04:32.540Z,9.70
2019-01-30T12:07:00.008Z,9.83
2019-01-30T12:09:27.680Z,10.20
2019-01-30T12:11:55.524Z,9.90
2019-01-30T12:14:23.650Z,9.57
2019-01-30T12:16:51.103Z,9.57
2019-01-30T12:19:18.544Z,10.27
2019-01-30T12:21:46.698Z,9.57
2019-01-30T12:24:14.555Z,9.57
2019-01-30T12:26:42.021Z,8.90
2019-01-30T12:29:10.096Z,9.87
2019-01-30T12:31:37.555Z,9.17
2019-01-30T12:34:05.069Z,8.63
2019-01-30T12:36:33.124Z,8.77
2019-01-30T12:39:00.615Z,9.10
2019-01-30T12:41:28.346Z,8.57
2019-01-30T12:43:55.802Z,8.43
2019-01-30T12:46:23.595Z,8.03
2019-01-30T12:48:51.094Z,7.73
2019-01-30T12:51:19.030Z,7.50
2019-01-30T12:53:46.837Z,7.43
2019-01-30T12:56:14.262Z,7.73
2019-01-30T12:58:41.654Z,7.43
2019-01-30T13:01:09.132Z,6.50
2019-01-30T13:03:37.049Z,6.03
2019-01-30T13:06:04.521Z,5.80
2019-01-30T13:08:32.052Z,5.33
2019-01-30T13:10:59.451Z,5.60
2019-01-30T13:13:27.310Z,5.23
2019-01-30T13:15:55.079Z,4.70
2019-01-30T13:18:22.550Z,4.60
2019-01-30T13:20:50.063Z,4.53
2019-01-30T13:23:17.779Z,5.30
2019-01-30T13:25:45.642Z,4.90
2019-01-30T13:28:13.366Z,4.77
2019-01-30T13:30:43.476Z,4.93
2019-01-30T13:33:10.788Z,5.33
2019-01-30T13:35:38.516Z,5.23
2019-01-30T13:38:06.546Z,5.57
2019-01-30T13:40:36.715Z,4.80
2019-01-30T13:43:05.634Z,5.20
2019-01-30T13:45:33.044Z,5.00
2019-01-30T13:48:00.502Z,4.97
2019-01-30T13:50:28.508Z,4.20
2019-01-30T13:52:56.778Z,3.27
2019-01-30T13:55:24.810Z,4.20
2019-01-30T13:57:52.547Z,3.40
2019-01-30T14:00:22.969Z,2.90
2019-01-30T14:02:50.764Z,2.60
2019-01-30T14:05:18.563Z,2.50
2019-01-30T14:07:47.615Z,3.17
2019-01-30T14:10:15.652Z,2.83
2019-01-30T14:12:43.134Z,2.20
2019-01-30T14:15:12.994Z,1.90
2019-01-30T14:17:40.939Z,2.03
2019-01-30T14:20:10.475Z,1.70
2019-01-30T14:22:38.183Z,1.30
2019-01-30T14:25:06.383Z,1.20
2019-01-30T14:27:33.801Z,1.00
2019-01-30T14:30:01.481Z,1.60
2019-01-30T14:32:29.085Z,0.87
2019-01-30T14:34:57.247Z,1.23
2019-01-30T14:37:24.652Z,0.83
2019-01-30T14:39:53.618Z,0.87
2019-01-30T14:42:21.085Z,1.33
2019-01-30T14:44:48.800Z,1.70
2019-01-30T14:47:16.291Z,1.00
2019-01-30T14:49:44.055Z,0.80
2019-01-30T14:52:11.573Z,0.83
2019-01-30T14:54:39.072Z,1.07
2019-01-30T14:57:06.512Z,0.80
2019-01-30T14:59:34.340Z,0.90
2019-01-30T15:02:02.113Z,0.80
2019-01-30T15:04:29.792Z,0.93
2019-01-30T15:06:57.272Z,0.80
2019-01-30T15:09:25.040Z,0.70
2019-01-30T15:11:52.881Z,0.73
2019-01-30T15:14:20.597Z,0.80
2019-01-30T15:16:49.136Z,0.80
2019-01-30T15:19:16.920Z,1.20
2019-01-30T15:21:44.379Z,0.87
2019-01-30T15:24:11.978Z,1.00
2019-01-30T15:26:39.407Z,0.90
2019-01-30T15:29:07.216Z,1.20
2019-01-30T15:31:34.664Z,1.17
2019-01-30T15:34:02.454Z,1.30
2019-01-30T15:36:29.918Z,1.00
2019-01-30T15:38:57.762Z,1.27
2019-01-30T15:41:25.598Z,0.80
2019-01-30T15:43:53.045Z,1.00
2019-01-30T15:46:20.602Z,0.80
2019-01-30T15:48:48.346Z,0.97
2019-01-30T15:51:16.103Z,0.90
2019-01-30T15:53:43.878Z,1.10
2019-01-30T15:56:11.291Z,1.00
2019-01-30T15:58:39.156Z,1.20
2019-01-30T16:01:20.175Z,1.20
2019-01-30T16:03:47.959Z,0.90
2019-01-30T16:06:15.404Z,1.13
2019-01-30T16:08:43.192Z,1.20
2019-01-30T16:11:10.795Z,1.30
2019-01-30T16:13:46.712Z,1.20
2019-01-30T16:16:14.153Z,1.00
2019-01-30T16:18:41.655Z,1.10
2019-01-30T16:21:09.811Z,1.30
2019-01-30T16:23:37.446Z,1.40
2019-01-30T16:26:05.006Z,1.07
2019-01-30T16:28:33.232Z,1.30
2019-01-30T16:31:00.846Z,1.10
2019-01-30T16:33:28.327Z,1.40
2019-01-30T16:35:56.529Z,1.20
2019-01-30T16:38:24.007Z,1.47
2019-01-30T16:40:51.887Z,1.30
2019-01-30T16:43:19.627Z,2.30
2019-01-30T16:45:47.105Z,2.40
2019-01-30T16:48:14.990Z,1.57
2019-01-30T16:50:42.808Z,1.37
2019-01-30T16:53:10.717Z,1.50
2019-01-30T16:55:38.607Z,1.30
2019-01-30T16:58:08.432Z,1.70
2019-01-30T17:00:36.401Z,1.40
2019-01-30T17:03:04.364Z,1.52
2019-01-30T17:05:32.254Z,2.07
2019-01-30T17:08:00.152Z,2.20
2019-01-30T17:10:28.075Z,1.60
2019-01-30T17:12:55.642Z,1.80
2019-01-30T17:15:25.574Z,1.87
2019-01-30T17:17:53.168Z,1.90
2019-01-30T17:20:22.743Z,2.10
2019-01-30T17:22:56.395Z,2.23
2019-01-30T17:25:24.270Z,1.80
2019-01-30T17:27:51.862Z,1.93
2019-01-30T17:30:25.651Z,1.67
2019-01-30T17:32:53.696Z,1.87
2019-01-30T17:35:22.857Z,1.43
2019-01-30T17:37:52.981Z,2.53
2019-01-30T17:40:21.773Z,1.87
2019-01-30T17:42:49.710Z,2.27
2019-01-30T17:45:18.135Z,1.80
2019-01-30T17:47:46.054Z,2.10
2019-01-30T17:50:16.580Z,2.10
2019-01-30T17:52:44.261Z,1.80
2019-01-30T17:55:12.263Z,1.97
2019-01-30T17:57:40.386Z,2.50
2019-01-30T18:00:26.138Z,2.90
2019-01-30T18:02:54.252Z,2.80
2019-01-30T18:05:21.880Z,3.30
2019-01-30T18:07:49.741Z,2.27
2019-01-30T18:10:18.148Z,2.70
2019-01-30T18:12:46.246Z,2.73
2019-01-30T18:15:14.817Z,3.70
2019-01-30T18:17:42.774Z,3.80
2019-01-30T18:20:12.282Z,3.20
2019-01-30T18:22:40.398Z,2.80
2019-01-30T18:25:09.479Z,3.23
2019-01-30T18:27:37.947Z,2.70
2019-01-30T18:30:08.135Z,2.57
2019-01-30T18:32:36.558Z,3.17
2019-01-30T18:35:06.808Z,3.50
2019-01-30T18:37:36.750Z,3.30
2019-01-30T18:40:08.247Z,3.10
2019-01-30T18:42:36.286Z,3.50
2019-01-30T18:45:09.072Z,3.20
2019-01-30T18:47:37.832Z,3.50
2019-01-30T18:50:08.815Z,3.47
2019-01-30T18:52:41.061Z,3.20
2019-01-30T18:55:09.039Z,3.57
2019-01-30T18:57:37.331Z,3.97
2019-01-30T19:00:10.660Z,3.53
2019-01-30T19:02:40.215Z,3.70
2019-01-30T19:05:09.390Z,3.33
2019-01-30T19:07:37.569Z,2.40
2019-01-30T19:10:08.517Z,2.37
2019-01-30T19:12:36.605Z,2.73
2019-01-30T19:15:06.364Z,2.57
2019-01-30T19:17:37.424Z,2.80
2019-01-30T19:20:08.506Z,2.47
2019-01-30T19:22:37.092Z,2.80
2019-01-30T19:25:08.433Z,2.70
2019-01-30T19:27:37.165Z,3.30
2019-01-30T19:30:09.024Z,3.33
2019-01-30T19:32:38.128Z,3.53
2019-01-30T19:35:07.836Z,2.70
2019-01-30T19:37:37.226Z,4.00
2019-01-30T19:40:07.251Z,5.03
2019-01-30T19:42:36.586Z,3.07
2019-01-30T19:45:08.027Z,3.70
2019-01-30T19:47:36.652Z,3.07
2019-01-30T19:50:08.150Z,2.73
2019-01-30T19:52:37.384Z,2.43
2019-01-30T19:55:07.277Z,2.90
2019-01-30T19:57:37.449Z,2.60
2019-01-30T20:00:10.282Z,2.40
2019-01-30T20:02:41.329Z,2.90
2019-01-30T20:05:13.666Z,2.77
2019-01-30T20:07:45.038Z,2.93
2019-01-30T20:10:18.158Z,1.87
2019-01-30T20:12:47.131Z,2.87
2019-01-30T20:15:19.020Z,2.80
2019-01-30T20:17:52.158Z,2.23
2019-01-30T20:20:22.555Z,2.37
2019-01-30T20:22:53.074Z,2.50
2019-01-30T20:25:24.926Z,2.83
2019-01-30T20:28:00.292Z,2.70
2019-01-30T20:30:30.156Z,2.57
2019-01-30T20:32:59.241Z,2.40
2019-01-30T20:35:28.136Z,2.13
2019-01-30T20:38:00.387Z,3.10
2019-01-30T20:40:29.458Z,2.70
2019-01-30T20:43:00.469Z,2.40
2019-01-30T20:45:33.791Z,2.37
2019-01-30T20:48:00.835Z,2.90
2019-01-30T20:50:29.683Z,2.27
2019-01-30T20:52:58.489Z,2.37
2019-01-30T20:55:26.964Z,1.90
2019-01-30T20:58:00.838Z,2.37
2019-01-30T21:00:35.317Z,2.03
2019-01-30T21:03:08.498Z,2.27
2019-01-30T21:05:36.822Z,2.03
2019-01-30T21:08:06.891Z,2.30
2019-01-30T21:10:37.580Z,1.63
2019-01-30T21:13:09.286Z,2.33
2019-01-30T21:15:37.958Z,2.20
2019-01-30T21:18:18.001Z,2.43
2019-01-30T21:20:47.489Z,2.07
2019-01-30T21:23:15.867Z,2.00
2019-01-30T21:26:03.739Z,2.43
2019-01-30T21:28:36.018Z,2.10
2019-01-30T21:31:04.034Z,2.17
2019-01-30T21:33:32.542Z,2.53
2019-01-30T21:36:01.390Z,2.53
2019-01-30T21:38:36.577Z,2.70
2019-01-30T21:43:47.351Z,3.20
2019-01-30T21:46:18.562Z,2.70
2019-01-30T21:48:48.537Z,2.77
2019-01-30T21:51:16.164Z,2.90
2019-01-30T21:53:44.131Z,3.23
2019-01-30T21:56:19.121Z,3.00
2019-01-30T21:58:48.049Z,3.03
2019-01-30T22:01:15.715Z,3.57
2019-01-30T22:03:43.405Z,3.10
2019-01-30T22:06:11.193Z,3.20
2019-01-30T22:08:39.363Z,3.43
2019-01-30T22:11:07.675Z,3.87
2019-01-30T22:13:35.401Z,3.57
2019-01-30T22:16:03.612Z,3.60
2019-01-30T22:18:31.134Z,3.57
2019-01-30T22:20:58.789Z,3.43
2019-01-30T22:23:28.387Z,3.97
2019-01-30T22:26:01.592Z,3.60
2019-01-30T22:28:31.071Z,4.70
2019-01-30T22:30:58.656Z,3.70
2019-01-30T22:33:28.504Z,3.73
2019-01-30T22:35:56.851Z,3.73
2019-01-30T22:38:25.689Z,3.93
2019-01-30T22:40:53.499Z,3.83
2019-01-30T22:43:20.964Z,4.23
2019-01-30T22:45:51.116Z,3.83
2019-01-30T22:48:18.885Z,4.47
2019-01-30T22:50:47.153Z,4.93
2019-01-30T22:53:21.519Z,3.80
2019-01-30T22:55:54.990Z,4.00
2019-01-30T22:58:23.760Z,3.33
2019-01-30T23:01:27.134Z,3.80
2019-01-30T23:04:35.792Z,4.00
2019-01-30T23:07:28.268Z,4.40
2019-01-30T23:10:28.113Z,4.07
2019-01-30T23:13:09.306Z,4.00
2019-01-30T23:15:52.238Z,3.90
2019-01-30T23:18:49.039Z,4.20
2019-01-30T23:21:20.882Z,4.27
2019-01-30T23:24:30.333Z,4.50
2019-01-30T23:27:29.109Z,3.70
2019-01-30T23:30:20.402Z,3.57
2019-01-30T23:33:17.825Z,4.00
2019-01-30T23:36:10.011Z,3.97
2019-01-30T23:39:10.774Z,3.67
2019-01-30T23:42:08.567Z,3.80
2019-01-30T23:44:46.633Z,3.63
2019-01-30T23:47:37.449Z,3.50
2019-01-30T23:51:02.039Z,4.50
2019-01-30T23:54:19.049Z,3.40
2019-01-30T23:57:13.581Z,3.63
